Observations for STANSTED AIRPORT, United Kingdom (EGSS)

EGSS 220520Z AUTO 15005KT 7000 OVC013 16/15 Q1020   
EGSS 220450Z AUTO 13005KT 7000 FEW005 BKN012 OVC037 16/15 Q1020 
EGSS 220420Z AUTO 12004KT 8000 BKN011 OVC037 16/15 Q1020
EGSS 220350Z AUTO 10004KT 7000 BKN011 OVC025 16/15 Q1020
EGSS 220320Z AUTO 10004KT 7000 SCT010 BKN023 OVC039 16/14 Q1020 
EGSS 220250Z AUTO 14005KT 8000 FEW010 BKN021 16/15 Q1021
EGSS 220220Z AUTO 15006KT 9999 FEW011 BKN016 OVC023 16/15 Q1021 
EGSS 220150Z AUTO 13005KT 9999 OVC011 16/15 Q1021   
EGSS 220120Z AUTO 13005KT 9999 OVC011 16/15 Q1021   
EGSS 220050Z AUTO 12006KT 100V160 9999 OVC012 16/14 Q1021   
EGSS 220020Z AUTO 13006KT 9000 OVC013 16/14 Q1021   
EGSS 212350Z AUTO 13007KT 9000 OVC013 16/14 Q1021   
EGSS 212320Z AUTO 14005KT 100V170 9000 OVC014 16/14 Q1021   
EGSS 212250Z AUTO 13006KT 100V180 9999 BKN014 OVC032 16/14 Q1021
EGSS 212220Z AUTO 13005KT 100V160 9999 BKN016 OVC032 16/14 Q1021
EGSS 212150Z AUTO 14005KT 9999 BKN016 16/14 Q1022   
EGSS 212120Z AUTO 13006KT 9999 BKN015 16/14 Q1022   
EGSS 212050Z AUTO 12006KT 9999 OVC015 16/14 Q1022   
EGSS 212020Z AUTO 13006KT 110V190 9999 OVC016 17/14 Q1022   
EGSS 211950Z AUTO 13007KT 9999 OVC020 17/14 Q1021   
EGSS 211920Z AUTO 13006KT 110V170 9999 OVC020 17/15 Q1021   
EGSS 211850Z AUTO 16004KT 130V200 9999 OVC022 17/15 Q1021   
EGSS 211820Z AUTO VRB03KT 9999 OVC019 18/14 Q1021   
EGSS 211750Z AUTO 18005KT 9999 BKN016 OVC023 18/14 Q1021
EGSS 211720Z AUTO 16006KT 130V200 9999 OVC016 18/14 Q1021   
EGSS 211650Z AUTO 14006KT 9999 OVC018 18/14 Q1021   
EGSS 211620Z AUTO 16005KT 120V190 9999 OVC019 18/14 Q1021   
EGSS 211550Z AUTO 17006KT 140V220 9999 OVC018 18/14 Q1021   
EGSS 211520Z AUTO VRB06KT 9999 BKN018 OVC022 18/14 Q1021
EGSS 211450Z AUTO 14008KT 110V210 9999 OVC017 18/14 Q1021   
EGSS 211420Z AUTO 13007KT 070V160 9999 OVC016 18/14 Q1021   
EGSS 211350Z AUTO VRB08KT 9999 OVC016 18/14 Q1021   
EGSS 211320Z 12008KT 9999 OVC016 17/14 Q1022
EGSS 211250Z 12008KT 9999 OVC014 17/14 Q1022
EGSS 211220Z 11007G18KT 010V140 9999 BKN016 OVC018 17/14 Q1022  
EGSS 211150Z AUTO 14007KT 030V160 9999 BKN013 OVC018 17/14 Q1022
EGSS 211120Z AUTO 12008KT 9999 BKN011 OVC016 17/14 Q1022
EGSS 211050Z AUTO 13008KT 090V150 9999 BKN008 OVC011 16/14 Q1022
EGSS 211020Z AUTO 12008KT 9999 BKN008 OVC033 17/15 Q1022
EGSS 210950Z AUTO 13009KT 090V190 5000 -DZ OVC005 16/15 Q1022   
EGSS 210920Z AUTO 12007KT 5000 -DZ BKN004 OVC009 15/15 Q1022 REDZ   
EGSS 210850Z AUTO 11008KT 090V150 4100 HZ OVC005 15/14 Q1022
EGSS 210820Z AUTO 12008KT 070V160 9999 BKN005 OVC010 15/14 Q1022
EGSS 210750Z AUTO 12008KT 090V170 9999 BKN004 OVC013 15/14 Q1022
EGSS 210720Z AUTO 12008KT 090V160 9999 OVC005 14/13 Q1022   
EGSS 210650Z AUTO 12008KT 9999 OVC004 14/13 Q1022   
EGSS 210620Z AUTO 13007KT 090V170 9999 OVC007 14/13 Q1022   
EGSS 210550Z AUTO 13008KT 100V170 7000 OVC003 13/13 Q1021   
EGSS 210520Z AUTO 12007KT 100V160 3600 BR OVC003 13/13 Q1021
EGSS 210450Z AUTO 12006KT 3600 BR OVC003 13/13 Q1021